sensor_id;sensor_type;location;lat;lon;timestamp;pressure;altitude;pressure_sealevel;temperature;humidity
49877;BME280;35771;48.978;9.294;2022-08-27T00:01:14;98721.06;;;18.99;100.00
49877;BME280;35771;48.978;9.294;2022-08-27T00:03:43;98701.78;;;18.99;100.00
49877;BME280;35771;48.978;9.294;2022-08-27T00:06:11;98708.97;;;19.00;100.00
49877;BME280;35771;48.978;9.294;2022-08-27T00:08:39;98710.03;;;18.99;100.00
49877;BME280;35771;48.978;9.294;2022-08-27T00:11:07;98693.44;;;18.94;100.00
49877;BME280;35771;48.978;9.294;2022-08-27T00:13:34;98698.72;;;18.96;100.00
49877;BME280;35771;48.978;9.294;2022-08-27T00:16:01;98695.44;;;18.99;100.00
49877;BME280;35771;48.978;9.294;2022-08-27T00:18:28;98708.53;;;19.08;100.00
49877;BME280;35771;48.978;9.294;2022-08-27T00:20:54;98703.94;;;19.14;100.00
49877;BME280;35771;48.978;9.294;2022-08-27T00:23:21;98710.53;;;19.13;100.00
49877;BME280;35771;48.978;9.294;2022-08-27T00:25:47;98718.16;;;19.06;100.00
49877;BME280;35771;48.978;9.294;2022-08-27T00:28:15;98713.06;;;18.98;100.00
49877;BME280;35771;48.978;9.294;2022-08-27T00:30:42;98719.13;;;19.00;100.00
49877;BME280;35771;48.978;9.294;2022-08-27T00:33:09;98720.72;;;19.13;100.00
49877;BME280;35771;48.978;9.294;2022-08-27T00:35:35;98712.28;;;19.02;100.00
49877;BME280;35771;48.978;9.294;2022-08-27T00:38:03;98712.66;;;19.06;100.00
49877;BME280;35771;48.978;9.294;2022-08-27T00:40:30;98708.28;;;19.10;100.00
49877;BME280;35771;48.978;9.294;2022-08-27T00:42:57;98711.53;;;19.07;100.00
49877;BME280;35771;48.978;9.294;2022-08-27T00:45:28;98689.94;;;18.99;100.00
49877;BME280;35771;48.978;9.294;2022-08-27T00:47:59;98700.53;;;18.90;100.00
49877;BME280;35771;48.978;9.294;2022-08-27T00:50:32;98711.63;;;18.95;100.00
49877;BME280;35771;48.978;9.294;2022-08-27T00:53:02;98698.28;;;18.87;100.00
49877;BME280;35771;48.978;9.294;2022-08-27T00:55:32;98706.38;;;18.93;100.00
49877;BME280;35771;48.978;9.294;2022-08-27T00:58:13;98702.28;;;18.96;100.00
49877;BME280;35771;48.978;9.294;2022-08-27T01:00:44;98703.47;;;19.00;100.00
49877;BME280;35771;48.978;9.294;2022-08-27T01:03:11;98697.53;;;18.91;100.00
49877;BME280;35771;48.978;9.294;2022-08-27T01:05:38;98678.50;;;18.90;100.00
49877;BME280;35771;48.978;9.294;2022-08-27T01:08:09;98703.88;;;19.09;100.00
49877;BME280;35771;48.978;9.294;2022-08-27T01:10:37;98684.25;;;19.05;100.00
49877;BME280;35771;48.978;9.294;2022-08-27T01:13:05;98677.16;;;19.09;100.00
49877;BME280;35771;48.978;9.294;2022-08-27T01:15:32;98697.81;;;19.29;100.00
49877;BME280;35771;48.978;9.294;2022-08-27T01:18:03;98692.81;;;19.26;100.00
49877;BME280;35771;48.978;9.294;2022-08-27T01:20:35;98688.50;;;19.13;100.00
49877;BME280;35771;48.978;9.294;2022-08-27T01:23:09;98695.69;;;19.14;100.00
49877;BME280;35771;48.978;9.294;2022-08-27T01:25:40;98686.50;;;19.08;100.00
49877;BME280;35771;48.978;9.294;2022-08-27T01:28:06;98689.91;;;19.16;100.00
49877;BME280;35771;48.978;9.294;2022-08-27T01:30:33;98690.94;;;19.09;100.00
49877;BME280;35771;48.978;9.294;2022-08-27T01:33:08;98686.59;;;19.14;100.00
49877;BME280;35771;48.978;9.294;2022-08-27T01:35:34;98695.94;;;19.13;100.00
49877;BME280;35771;48.978;9.294;2022-08-27T01:38:01;98698.84;;;19.23;100.00
49877;BME280;35771;48.978;9.294;2022-08-27T01:40:28;98694.84;;;19.14;100.00
49877;BME280;35771;48.978;9.294;2022-08-27T01:42:56;98707.44;;;19.09;100.00
49877;BME280;35771;48.978;9.294;2022-08-27T01:45:25;98685.50;;;18.81;100.00
49877;BME280;35771;48.978;9.294;2022-08-27T01:47:52;98698.53;;;18.85;100.00
49877;BME280;35771;48.978;9.294;2022-08-27T01:50:21;98703.41;;;18.83;100.00
49877;BME280;35771;48.978;9.294;2022-08-27T01:52:48;98709.63;;;18.90;100.00
49877;BME280;35771;48.978;9.294;2022-08-27T01:55:17;98694.78;;;18.91;100.00
49877;BME280;35771;48.978;9.294;2022-08-27T01:57:45;98696.78;;;18.96;100.00
49877;BME280;35771;48.978;9.294;2022-08-27T02:00:16;98694.75;;;19.08;100.00
49877;BME280;35771;48.978;9.294;2022-08-27T02:02:44;98688.41;;;19.08;100.00
49877;BME280;35771;48.978;9.294;2022-08-27T02:05:12;98700.69;;;19.17;100.00
49877;BME280;35771;48.978;9.294;2022-08-27T02:07:39;98696.75;;;19.13;100.00
49877;BME280;35771;48.978;9.294;2022-08-27T02:10:08;98691.59;;;19.00;100.00
49877;BME280;35771;48.978;9.294;2022-08-27T02:12:35;98687.84;;;19.06;100.00
49877;BME280;35771;48.978;9.294;2022-08-27T02:15:03;98684.69;;;18.97;100.00
49877;BME280;35771;48.978;9.294;2022-08-27T02:17:31;98687.75;;;19.01;100.00
49877;BME280;35771;48.978;9.294;2022-08-27T02:19:58;98675.25;;;18.93;100.00
49877;BME280;35771;48.978;9.294;2022-08-27T02:22:25;98677.69;;;18.89;100.00
49877;BME280;35771;48.978;9.294;2022-08-27T02:24:52;98687.34;;;18.92;100.00
49877;BME280;35771;48.978;9.294;2022-08-27T02:27:18;98689.84;;;18.93;100.00
49877;BME280;35771;48.978;9.294;2022-08-27T02:29:45;98683.19;;;18.89;100.00
49877;BME280;35771;48.978;9.294;2022-08-27T02:32:12;98687.94;;;18.94;100.00
49877;BME280;35771;48.978;9.294;2022-08-27T02:34:40;98689.09;;;18.98;100.00
49877;BME280;35771;48.978;9.294;2022-08-27T02:37:07;98685.09;;;19.06;100.00
49877;BME280;35771;48.978;9.294;2022-08-27T02:39:34;98678.72;;;19.05;100.00
49877;BME280;35771;48.978;9.294;2022-08-27T02:42:00;98671.53;;;19.04;100.00
49877;BME280;35771;48.978;9.294;2022-08-27T02:44:27;98681.13;;;19.19;100.00
49877;BME280;35771;48.978;9.294;2022-08-27T02:46:53;98681.59;;;19.10;100.00
49877;BME280;35771;48.978;9.294;2022-08-27T02:49:20;98683.66;;;19.03;100.00
49877;BME280;35771;48.978;9.294;2022-08-27T02:51:52;98689.19;;;18.86;100.00
49877;BME280;35771;48.978;9.294;2022-08-27T02:54:18;98690.03;;;18.87;100.00
49877;BME280;35771;48.978;9.294;2022-08-27T02:56:45;98683.25;;;18.78;100.00
49877;BME280;35771;48.978;9.294;2022-08-27T02:59:11;98679.31;;;18.73;100.00
49877;BME280;35771;48.978;9.294;2022-08-27T03:01:39;98694.19;;;18.89;100.00
49877;BME280;35771;48.978;9.294;2022-08-27T03:04:05;98697.06;;;18.83;100.00
49877;BME280;35771;48.978;9.294;2022-08-27T03:06:32;98696.50;;;18.81;100.00
49877;BME280;35771;48.978;9.294;2022-08-27T03:09:00;98698.91;;;18.77;100.00
49877;BME280;35771;48.978;9.294;2022-08-27T03:11:26;98694.56;;;18.64;100.00
49877;BME280;35771;48.978;9.294;2022-08-27T03:13:53;98701.75;;;18.65;100.00
49877;BME280;35771;48.978;9.294;2022-08-27T03:16:19;98691.56;;;18.66;100.00
49877;BME280;35771;48.978;9.294;2022-08-27T03:18:46;98708.41;;;18.69;100.00
49877;BME280;35771;48.978;9.294;2022-08-27T03:21:15;98704.50;;;18.82;100.00
49877;BME280;35771;48.978;9.294;2022-08-27T03:23:42;98703.59;;;18.93;100.00
49877;BME280;35771;48.978;9.294;2022-08-27T03:26:11;98705.59;;;18.98;100.00
49877;BME280;35771;48.978;9.294;2022-08-27T03:28:38;98705.53;;;18.93;100.00
49877;BME280;35771;48.978;9.294;2022-08-27T03:31:06;98698.41;;;18.80;100.00
49877;BME280;35771;48.978;9.294;2022-08-27T03:33:35;98697.56;;;18.63;100.00
49877;BME280;35771;48.978;9.294;2022-08-27T03:36:03;98690.31;;;18.56;100.00
49877;BME280;35771;48.978;9.294;2022-08-27T03:38:29;98690.97;;;18.64;100.00
49877;BME280;35771;48.978;9.294;2022-08-27T03:40:57;98689.47;;;18.56;100.00
49877;BME280;35771;48.978;9.294;2022-08-27T03:43:25;98694.22;;;18.61;100.00
49877;BME280;35771;48.978;9.294;2022-08-27T03:45:52;98684.22;;;18.54;100.00
49877;BME280;35771;48.978;9.294;2022-08-27T03:48:18;98678.38;;;18.68;100.00
49877;BME280;35771;48.978;9.294;2022-08-27T03:50:49;98682.19;;;18.50;100.00
49877;BME280;35771;48.978;9.294;2022-08-27T03:53:17;98696.16;;;18.60;100.00
49877;BME280;35771;48.978;9.294;2022-08-27T03:55:45;98688.56;;;18.50;100.00
49877;BME280;35771;48.978;9.294;2022-08-27T03:58:12;98678.78;;;18.43;100.00
49877;BME280;35771;48.978;9.294;2022-08-27T04:00:40;98682.13;;;18.45;100.00
49877;BME280;35771;48.978;9.294;2022-08-27T04:03:07;98686.72;;;18.56;100.00
49877;BME280;35771;48.978;9.294;2022-08-27T04:05:36;98673.19;;;18.54;100.00
49877;BME280;35771;48.978;9.294;2022-08-27T04:08:03;98687.72;;;18.50;100.00
49877;BME280;35771;48.978;9.294;2022-08-27T04:10:31;98685.13;;;18.60;100.00
49877;BME280;35771;48.978;9.294;2022-08-27T04:12:57;98694.97;;;18.56;100.00
49877;BME280;35771;48.978;9.294;2022-08-27T04:15:24;98684.38;;;18.48;100.00
49877;BME280;35771;48.978;9.294;2022-08-27T04:17:52;98686.63;;;18.51;100.00
49877;BME280;35771;48.978;9.294;2022-08-27T04:20:19;98686.38;;;18.35;100.00
49877;BME280;35771;48.978;9.294;2022-08-27T04:22:45;98689.38;;;18.34;100.00
49877;BME280;35771;48.978;9.294;2022-08-27T04:25:12;98691.63;;;18.37;100.00
49877;BME280;35771;48.978;9.294;2022-08-27T04:27:39;98691.88;;;18.52;100.00
49877;BME280;35771;48.978;9.294;2022-08-27T04:30:06;98704.41;;;18.43;100.00
49877;BME280;35771;48.978;9.294;2022-08-27T04:32:35;98693.19;;;18.33;100.00
49877;BME280;35771;48.978;9.294;2022-08-27T04:35:04;98685.34;;;18.25;100.00
49877;BME280;35771;48.978;9.294;2022-08-27T04:37:31;98700.91;;;18.48;100.00
49877;BME280;35771;48.978;9.294;2022-08-27T04:39:58;98700.97;;;18.53;100.00
49877;BME280;35771;48.978;9.294;2022-08-27T04:42:25;98699.38;;;18.40;100.00
49877;BME280;35771;48.978;9.294;2022-08-27T04:44:51;98704.66;;;18.42;100.00
49877;BME280;35771;48.978;9.294;2022-08-27T04:47:18;98714.53;;;18.43;100.00
49877;BME280;35771;48.978;9.294;2022-08-27T04:49:45;98710.97;;;18.42;100.00
49877;BME280;35771;48.978;9.294;2022-08-27T04:52:14;98704.72;;;18.47;100.00
49877;BME280;35771;48.978;9.294;2022-08-27T04:54:41;98704.47;;;18.48;100.00
49877;BME280;35771;48.978;9.294;2022-08-27T04:57:07;98698.88;;;18.43;100.00
49877;BME280;35771;48.978;9.294;2022-08-27T04:59:35;98701.22;;;18.51;100.00
49877;BME280;35771;48.978;9.294;2022-08-27T05:02:02;98706.22;;;18.54;100.00
49877;BME280;35771;48.978;9.294;2022-08-27T05:04:29;98701.56;;;18.55;100.00
49877;BME280;35771;48.978;9.294;2022-08-27T05:06:56;98687.47;;;18.51;100.00
49877;BME280;35771;48.978;9.294;2022-08-27T05:09:25;98705.09;;;18.67;100.00
49877;BME280;35771;48.978;9.294;2022-08-27T05:11:51;98689.91;;;18.65;100.00
49877;BME280;35771;48.978;9.294;2022-08-27T05:14:22;98701.25;;;18.68;100.00
49877;BME280;35771;48.978;9.294;2022-08-27T05:16:54;98705.47;;;18.59;100.00
49877;BME280;35771;48.978;9.294;2022-08-27T05:19:20;98700.22;;;18.57;100.00
49877;BME280;35771;48.978;9.294;2022-08-27T05:21:49;98702.97;;;18.57;100.00
49877;BME280;35771;48.978;9.294;2022-08-27T05:24:16;98697.81;;;18.61;100.00
49877;BME280;35771;48.978;9.294;2022-08-27T05:26:45;98693.56;;;18.70;100.00
49877;BME280;35771;48.978;9.294;2022-08-27T05:29:12;98696.81;;;18.67;100.00
49877;BME280;35771;48.978;9.294;2022-08-27T05:31:39;98697.75;;;18.73;100.00
49877;BME280;35771;48.978;9.294;2022-08-27T05:34:05;98701.16;;;18.80;100.00
49877;BME280;35771;48.978;9.294;2022-08-27T05:36:33;98692.75;;;18.70;100.00
49877;BME280;35771;48.978;9.294;2022-08-27T05:39:03;98696.66;;;18.74;100.00
49877;BME280;35771;48.978;9.294;2022-08-27T05:41:31;98680.88;;;18.69;100.00
49877;BME280;35771;48.978;9.294;2022-08-27T05:44:02;98679.81;;;18.70;100.00
49877;BME280;35771;48.978;9.294;2022-08-27T05:46:29;98694.91;;;18.68;100.00
49877;BME280;35771;48.978;9.294;2022-08-27T05:48:56;98699.25;;;18.81;100.00
49877;BME280;35771;48.978;9.294;2022-08-27T05:51:25;98692.00;;;18.74;100.00
49877;BME280;35771;48.978;9.294;2022-08-27T05:53:57;98699.41;;;18.74;100.00
49877;BME280;35771;48.978;9.294;2022-08-27T05:56:25;98695.50;;;18.70;100.00
49877;BME280;35771;48.978;9.294;2022-08-27T05:58:53;98705.66;;;18.69;100.00
49877;BME280;35771;48.978;9.294;2022-08-27T06:01:41;98698.75;;;18.67;100.00
49877;BME280;35771;48.978;9.294;2022-08-27T06:04:08;98691.81;;;18.64;100.00
49877;BME280;35771;48.978;9.294;2022-08-27T06:06:35;98694.50;;;18.76;100.00
49877;BME280;35771;48.978;9.294;2022-08-27T06:09:03;98700.59;;;18.78;100.00
49877;BME280;35771;48.978;9.294;2022-08-27T06:11:30;98690.81;;;18.70;100.00
49877;BME280;35771;48.978;9.294;2022-08-27T06:13:57;98692.06;;;18.80;100.00
49877;BME280;35771;48.978;9.294;2022-08-27T06:16:23;98702.59;;;18.83;100.00
49877;BME280;35771;48.978;9.294;2022-08-27T06:18:51;98692.31;;;18.78;100.00
49877;BME280;35771;48.978;9.294;2022-08-27T06:21:21;98695.50;;;18.70;100.00
49877;BME280;35771;48.978;9.294;2022-08-27T06:23:48;98702.53;;;18.95;100.00
49877;BME280;35771;48.978;9.294;2022-08-27T06:26:18;98697.34;;;18.98;100.00
49877;BME280;35771;48.978;9.294;2022-08-27T06:28:44;98718.56;;;18.98;100.00
49877;BME280;35771;48.978;9.294;2022-08-27T06:31:13;98708.88;;;18.95;100.00
49877;BME280;35771;48.978;9.294;2022-08-27T06:33:42;98704.47;;;18.94;100.00
49877;BME280;35771;48.978;9.294;2022-08-27T06:36:12;98713.47;;;19.06;100.00
49877;BME280;35771;48.978;9.294;2022-08-27T06:38:40;98719.47;;;19.20;100.00
49877;BME280;35771;48.978;9.294;2022-08-27T06:41:08;98711.38;;;18.97;100.00
49877;BME280;35771;48.978;9.294;2022-08-27T06:43:37;98709.13;;;19.10;100.00
49877;BME280;35771;48.978;9.294;2022-08-27T06:46:07;98724.97;;;19.20;100.00
49877;BME280;35771;48.978;9.294;2022-08-27T06:48:34;98719.91;;;19.12;100.00
49877;BME280;35771;48.978;9.294;2022-08-27T06:51:06;98716.53;;;19.10;100.00
49877;BME280;35771;48.978;9.294;2022-08-27T06:53:34;98727.56;;;19.10;100.00
49877;BME280;35771;48.978;9.294;2022-08-27T06:56:01;98724.75;;;19.05;100.00
49877;BME280;35771;48.978;9.294;2022-08-27T06:58:27;98721.31;;;18.98;100.00
49877;BME280;35771;48.978;9.294;2022-08-27T07:00:54;98719.47;;;19.03;100.00
49877;BME280;35771;48.978;9.294;2022-08-27T07:03:20;98713.63;;;19.00;100.00
49877;BME280;35771;48.978;9.294;2022-08-27T07:05:47;98723.81;;;18.99;100.00
49877;BME280;35771;48.978;9.294;2022-08-27T07:08:14;98723.00;;;18.99;100.00
49877;BME280;35771;48.978;9.294;2022-08-27T07:10:41;98728.47;;;19.16;100.00
49877;BME280;35771;48.978;9.294;2022-08-27T07:13:08;98717.22;;;19.17;100.00
49877;BME280;35771;48.978;9.294;2022-08-27T07:15:37;98734.72;;;19.28;100.00
49877;BME280;35771;48.978;9.294;2022-08-27T07:18:03;98727.22;;;19.23;100.00
49877;BME280;35771;48.978;9.294;2022-08-27T07:20:30;98735.91;;;19.32;100.00
49877;BME280;35771;48.978;9.294;2022-08-27T07:22:57;98729.44;;;19.43;100.00
49877;BME280;35771;48.978;9.294;2022-08-27T07:25:24;98726.22;;;19.30;100.00
49877;BME280;35771;48.978;9.294;2022-08-27T07:27:52;98730.06;;;19.28;100.00
49877;BME280;35771;48.978;9.294;2022-08-27T07:30:19;98726.81;;;19.32;100.00
49877;BME280;35771;48.978;9.294;2022-08-27T07:32:45;98745.09;;;19.38;100.00
49877;BME280;35771;48.978;9.294;2022-08-27T07:35:12;98753.59;;;19.36;100.00
49877;BME280;35771;48.978;9.294;2022-08-27T07:37:40;98746.22;;;19.42;100.00
49877;BME280;35771;48.978;9.294;2022-08-27T07:40:09;98738.34;;;19.28;100.00
49877;BME280;35771;48.978;9.294;2022-08-27T07:42:37;98749.34;;;19.45;100.00
49877;BME280;35771;48.978;9.294;2022-08-27T07:45:22;98747.75;;;19.33;100.00
49877;BME280;35771;48.978;9.294;2022-08-27T07:47:49;98755.44;;;19.31;100.00
49877;BME280;35771;48.978;9.294;2022-08-27T07:50:16;98748.50;;;19.28;100.00
49877;BME280;35771;48.978;9.294;2022-08-27T07:52:42;98748.19;;;19.24;100.00
49877;BME280;35771;48.978;9.294;2022-08-27T07:55:09;98753.94;;;19.40;100.00
49877;BME280;35771;48.978;9.294;2022-08-27T07:57:36;98744.22;;;19.37;100.00
49877;BME280;35771;48.978;9.294;2022-08-27T08:00:07;98763.03;;;19.40;100.00
49877;BME280;35771;48.978;9.294;2022-08-27T08:02:36;98757.19;;;19.37;100.00
49877;BME280;35771;48.978;9.294;2022-08-27T08:05:04;98768.22;;;19.37;100.00
49877;BME280;35771;48.978;9.294;2022-08-27T08:07:32;98763.41;;;19.27;100.00
49877;BME280;35771;48.978;9.294;2022-08-27T08:09:58;98764.88;;;19.35;100.00
49877;BME280;35771;48.978;9.294;2022-08-27T08:12:26;98771.00;;;19.20;100.00
49877;BME280;35771;48.978;9.294;2022-08-27T08:14:52;98765.38;;;19.15;100.00
49877;BME280;35771;48.978;9.294;2022-08-27T08:17:22;98761.53;;;19.16;100.00
49877;BME280;35771;48.978;9.294;2022-08-27T08:19:50;98778.31;;;19.31;100.00
49877;BME280;35771;48.978;9.294;2022-08-27T08:22:18;98773.66;;;19.32;100.00
49877;BME280;35771;48.978;9.294;2022-08-27T08:24:44;98777.06;;;19.22;100.00
49877;BME280;35771;48.978;9.294;2022-08-27T08:27:11;98780.50;;;19.29;100.00
49877;BME280;35771;48.978;9.294;2022-08-27T08:29:37;98781.44;;;19.35;100.00
49877;BME280;35771;48.978;9.294;2022-08-27T08:32:05;98783.41;;;19.39;100.00
49877;BME280;35771;48.978;9.294;2022-08-27T08:34:32;98772.22;;;19.29;100.00
49877;BME280;35771;48.978;9.294;2022-08-27T08:37:02;98776.72;;;19.35;100.00
49877;BME280;35771;48.978;9.294;2022-08-27T08:39:28;98769.63;;;19.39;100.00
49877;BME280;35771;48.978;9.294;2022-08-27T08:41:57;98779.31;;;19.59;100.00
49877;BME280;35771;48.978;9.294;2022-08-27T08:44:31;98787.72;;;19.69;100.00
49877;BME280;35771;48.978;9.294;2022-08-27T08:47:03;98778.19;;;19.60;100.00
49877;BME280;35771;48.978;9.294;2022-08-27T08:49:45;98784.16;;;19.52;100.00
49877;BME280;35771;48.978;9.294;2022-08-27T08:52:18;98792.13;;;19.70;100.00
49877;BME280;35771;48.978;9.294;2022-08-27T08:54:47;98786.47;;;19.60;100.00
49877;BME280;35771;48.978;9.294;2022-08-27T08:57:20;98804.38;;;19.57;100.00
49877;BME280;35771;48.978;9.294;2022-08-27T08:59:53;98799.94;;;19.56;100.00
49877;BME280;35771;48.978;9.294;2022-08-27T09:02:21;98791.16;;;19.59;100.00
49877;BME280;35771;48.978;9.294;2022-08-27T09:04:48;98798.34;;;19.60;100.00
49877;BME280;35771;48.978;9.294;2022-08-27T09:07:20;98785.91;;;19.58;100.00
49877;BME280;35771;48.978;9.294;2022-08-27T09:09:55;98795.34;;;19.62;100.00
49877;BME280;35771;48.978;9.294;2022-08-27T09:12:27;98781.88;;;19.66;100.00
49877;BME280;35771;48.978;9.294;2022-08-27T09:14:57;98784.44;;;19.89;100.00
49877;BME280;35771;48.978;9.294;2022-08-27T09:17:26;98784.84;;;19.98;100.00
49877;BME280;35771;48.978;9.294;2022-08-27T09:19:53;98792.50;;;19.96;100.00
49877;BME280;35771;48.978;9.294;2022-08-27T09:22:26;98794.00;;;20.04;100.00
49877;BME280;35771;48.978;9.294;2022-08-27T09:25:03;98791.44;;;20.19;100.00
49877;BME280;35771;48.978;9.294;2022-08-27T09:27:34;98799.22;;;20.22;100.00
49877;BME280;35771;48.978;9.294;2022-08-27T09:30:07;98781.97;;;20.10;100.00
49877;BME280;35771;48.978;9.294;2022-08-27T09:32:34;98789.25;;;19.99;100.00
49877;BME280;35771;48.978;9.294;2022-08-27T09:35:03;98798.81;;;20.13;100.00
49877;BME280;35771;48.978;9.294;2022-08-27T09:37:32;98803.94;;;20.05;100.00
49877;BME280;35771;48.978;9.294;2022-08-27T09:40:01;98809.47;;;20.05;100.00
49877;BME280;35771;48.978;9.294;2022-08-27T09:42:35;98800.16;;;20.11;100.00
49877;BME280;35771;48.978;9.294;2022-08-27T09:45:06;98784.31;;;20.01;100.00
49877;BME280;35771;48.978;9.294;2022-08-27T09:47:41;98794.97;;;20.14;100.00
49877;BME280;35771;48.978;9.294;2022-08-27T09:50:08;98785.06;;;20.19;100.00
49877;BME280;35771;48.978;9.294;2022-08-27T09:52:46;98794.38;;;20.34;100.00
49877;BME280;35771;48.978;9.294;2022-08-27T09:55:25;98793.47;;;20.51;100.00
49877;BME280;35771;48.978;9.294;2022-08-27T09:57:52;98777.59;;;20.41;100.00
49877;BME280;35771;48.978;9.294;2022-08-27T10:00:31;98774.00;;;20.63;100.00
49877;BME280;35771;48.978;9.294;2022-08-27T10:02:59;98778.75;;;20.67;100.00
49877;BME280;35771;48.978;9.294;2022-08-27T10:05:28;98771.66;;;20.77;100.00
49877;BME280;35771;48.978;9.294;2022-08-27T10:08:00;98782.59;;;20.94;100.00
49877;BME280;35771;48.978;9.294;2022-08-27T10:10:37;98779.91;;;20.99;100.00
49877;BME280;35771;48.978;9.294;2022-08-27T10:13:10;98773.25;;;21.00;100.00
49877;BME280;35771;48.978;9.294;2022-08-27T10:15:44;98767.81;;;21.10;100.00
49877;BME280;35771;48.978;9.294;2022-08-27T10:18:19;98779.66;;;21.06;100.00
49877;BME280;35771;48.978;9.294;2022-08-27T10:21:00;98769.22;;;21.13;100.00
49877;BME280;35771;48.978;9.294;2022-08-27T10:23:32;98771.19;;;21.17;100.00
49877;BME280;35771;48.978;9.294;2022-08-27T10:26:05;98783.06;;;21.18;100.00
49877;BME280;35771;48.978;9.294;2022-08-27T10:28:43;98776.50;;;21.24;100.00
49877;BME280;35771;48.978;9.294;2022-08-27T10:31:30;98786.81;;;21.34;100.00
49877;BME280;35771;48.978;9.294;2022-08-27T10:34:11;98788.41;;;21.25;100.00
49877;BME280;35771;48.978;9.294;2022-08-27T10:36:50;98795.56;;;21.26;100.00
49877;BME280;35771;48.978;9.294;2022-08-27T10:39:41;98783.97;;;21.24;100.00
49877;BME280;35771;48.978;9.294;2022-08-27T10:42:15;98801.09;;;21.26;100.00
49877;BME280;35771;48.978;9.294;2022-08-27T10:44:56;98802.16;;;21.19;100.00
49877;BME280;35771;48.978;9.294;2022-08-27T10:47:51;98792.78;;;21.20;100.00
49877;BME280;35771;48.978;9.294;2022-08-27T10:50:26;98783.22;;;21.33;100.00
49877;BME280;35771;48.978;9.294;2022-08-27T10:52:56;98784.94;;;21.45;100.00
49877;BME280;35771;48.978;9.294;2022-08-27T10:55:30;98774.78;;;21.50;100.00
49877;BME280;35771;48.978;9.294;2022-08-27T10:58:13;98769.94;;;21.73;100.00
49877;BME280;35771;48.978;9.294;2022-08-27T11:00:50;98787.69;;;21.77;100.00
49877;BME280;35771;48.978;9.294;2022-08-27T11:03:27;98788.75;;;21.71;100.00
49877;BME280;35771;48.978;9.294;2022-08-27T11:05:58;98803.50;;;21.87;100.00
49877;BME280;35771;48.978;9.294;2022-08-27T11:08:34;98803.03;;;22.00;100.00
49877;BME280;35771;48.978;9.294;2022-08-27T11:11:07;98801.41;;;22.04;100.00
49877;BME280;35771;48.978;9.294;2022-08-27T11:13:38;98786.13;;;21.97;100.00
49877;BME280;35771;48.978;9.294;2022-08-27T11:16:16;98804.31;;;21.87;100.00
49877;BME280;35771;48.978;9.294;2022-08-27T11:18:46;98809.13;;;21.54;100.00
49877;BME280;35771;48.978;9.294;2022-08-27T11:21:19;98792.44;;;21.49;100.00
49877;BME280;35771;48.978;9.294;2022-08-27T11:23:53;98807.47;;;21.59;100.00
49877;BME280;35771;48.978;9.294;2022-08-27T11:26:24;98795.59;;;21.63;100.00
49877;BME280;35771;48.978;9.294;2022-08-27T11:28:53;98793.75;;;21.74;100.00
49877;BME280;35771;48.978;9.294;2022-08-27T11:31:24;98782.16;;;21.77;100.00
49877;BME280;35771;48.978;9.294;2022-08-27T11:34:02;98799.31;;;21.79;100.00
49877;BME280;35771;48.978;9.294;2022-08-27T11:36:58;98801.59;;;21.92;100.00
49877;BME280;35771;48.978;9.294;2022-08-27T11:39:45;98787.78;;;21.98;100.00
49877;BME280;35771;48.978;9.294;2022-08-27T11:42:24;98786.69;;;22.04;100.00
49877;BME280;35771;48.978;9.294;2022-08-27T11:45:04;98790.59;;;22.03;100.00
49877;BME280;35771;48.978;9.294;2022-08-27T11:47:34;98782.25;;;21.98;100.00
49877;BME280;35771;48.978;9.294;2022-08-27T11:50:06;98784.22;;;22.02;100.00
49877;BME280;35771;48.978;9.294;2022-08-27T11:52:54;98786.38;;;21.90;100.00
49877;BME280;35771;48.978;9.294;2022-08-27T11:55:28;98784.13;;;21.87;100.00
49877;BME280;35771;48.978;9.294;2022-08-27T11:58:10;98773.94;;;21.92;100.00
49877;BME280;35771;48.978;9.294;2022-08-27T12:00:49;98780.88;;;22.00;100.00
49877;BME280;35771;48.978;9.294;2022-08-27T12:03:28;98790.59;;;22.08;100.00
49877;BME280;35771;48.978;9.294;2022-08-27T12:06:15;98787.50;;;21.99;100.00
49877;BME280;35771;48.978;9.294;2022-08-27T12:08:43;98778.88;;;21.85;100.00
49877;BME280;35771;48.978;9.294;2022-08-27T12:11:20;98778.94;;;21.96;100.00
49877;BME280;35771;48.978;9.294;2022-08-27T12:13:57;98787.56;;;22.04;100.00
49877;BME280;35771;48.978;9.294;2022-08-27T12:16:33;98787.72;;;21.87;100.00
49877;BME280;35771;48.978;9.294;2022-08-27T12:19:15;98784.66;;;21.79;100.00
49877;BME280;35771;48.978;9.294;2022-08-27T12:21:50;98772.66;;;21.63;100.00
49877;BME280;35771;48.978;9.294;2022-08-27T12:24:40;98772.06;;;21.55;100.00
49877;BME280;35771;48.978;9.294;2022-08-27T12:27:25;98783.50;;;21.69;100.00
49877;BME280;35771;48.978;9.294;2022-08-27T12:29:55;98771.84;;;21.67;100.00
49877;BME280;35771;48.978;9.294;2022-08-27T12:32:28;98762.03;;;21.49;100.00
49877;BME280;35771;48.978;9.294;2022-08-27T12:35:08;98772.38;;;21.64;100.00
49877;BME280;35771;48.978;9.294;2022-08-27T12:37:39;98767.09;;;21.58;100.00
49877;BME280;35771;48.978;9.294;2022-08-27T12:40:16;98764.03;;;21.54;100.00
49877;BME280;35771;48.978;9.294;2022-08-27T12:42:47;98778.22;;;21.68;100.00
49877;BME280;35771;48.978;9.294;2022-08-27T12:45:24;98769.69;;;21.80;100.00
49877;BME280;35771;48.978;9.294;2022-08-27T12:47:54;98779.34;;;21.72;100.00
49877;BME280;35771;48.978;9.294;2022-08-27T12:50:22;98777.16;;;21.74;100.00
49877;BME280;35771;48.978;9.294;2022-08-27T12:53:16;98760.84;;;21.72;100.00
49877;BME280;35771;48.978;9.294;2022-08-27T12:55:59;98762.03;;;21.92;100.00
49877;BME280;35771;48.978;9.294;2022-08-27T12:58:36;98773.06;;;21.82;100.00
49877;BME280;35771;48.978;9.294;2022-08-27T13:01:19;98748.66;;;21.73;100.00
49877;BME280;35771;48.978;9.294;2022-08-27T13:03:51;98770.84;;;21.84;100.00
49877;BME280;35771;48.978;9.294;2022-08-27T13:06:20;98761.41;;;21.80;100.00